Time;durP1;ratioP1;P1;durP2;ratioP2;P2;SDS_P1;SDS_P2;PMS_P1;PMS_P2;Temp;Humidity;BMP_temperature;BMP_pressure;BME280_temperature;BME280_humidity;BME280_pressure;Samples;Min_cycle;Max_cycle;Signal;HPM_P1;HPM_P2
2022/11/23 04:00:33;;;;;;;55.42;23.70;;;8.00;99.90;;;;;;6129924;23;21117;-83
2022/11/23 04:02:58;;;;;;;48.08;24.10;;;7.90;99.90;;;;;;6159814;23;20020;-81
2022/11/23 04:05:25;;;;;;;56.60;25.83;;;7.90;99.90;;;;;;6209103;23;20347;-82
2022/11/23 04:07:51;;;;;;;53.15;24.75;;;7.90;99.90;;;;;;6184096;23;20501;-81
2022/11/23 04:10:18;;;;;;;57.50;25.58;;;7.90;99.90;;;;;;6184704;23;20017;-82
2022/11/23 04:12:43;;;;;;;58.72;26.00;;;7.80;99.90;;;;;;6184702;23;20024;-82
2022/11/23 04:15:10;;;;;;;60.78;26.10;;;7.80;99.90;;;;;;6184152;23;20434;-82
2022/11/23 04:17:35;;;;;;;55.60;23.55;;;7.80;99.90;;;;;;6184710;23;20017;-82
2022/11/23 04:20:01;;;;;;;59.75;26.20;;;7.80;99.90;;;;;;6184131;23;20017;-83
2022/11/23 04:22:27;;;;;;;56.22;26.20;;;7.80;99.90;;;;;;6185576;23;20009;-82
2022/11/23 04:24:52;;;;;;;56.30;24.40;;;7.80;99.90;;;;;;6183908;23;20067;-82
2022/11/23 04:27:18;;;;;;;55.83;25.33;;;7.70;99.90;;;;;;6186333;23;20079;-81
2022/11/23 04:29:44;;;;;;;56.35;25.08;;;7.70;99.90;;;;;;6183945;23;20481;-82
2022/11/23 04:32:09;;;;;;;60.47;25.02;;;7.70;99.90;;;;;;6183892;23;20013;-81
2022/11/23 04:34:35;;;;;;;56.50;24.23;;;7.70;99.90;;;;;;6183996;23;20017;-83
2022/11/23 04:37:00;;;;;;;62.85;25.98;;;7.70;99.90;;;;;;6184078;23;20017;-82
2022/11/23 04:39:26;;;;;;;55.90;25.05;;;7.70;99.90;;;;;;6184046;23;20136;-83
2022/11/23 04:41:52;;;;;;;52.92;24.00;;;7.70;99.90;;;;;;6183992;23;20091;-82
2022/11/23 04:44:19;;;;;;;57.63;24.80;;;7.70;99.90;;;;;;6183775;23;20017;-82
2022/11/23 04:46:46;;;;;;;56.10;25.05;;;7.70;99.90;;;;;;6159137;23;20040;-83
2022/11/23 04:49:11;;;;;;;57.45;25.58;;;7.70;99.90;;;;;;6185869;23;20009;-82
2022/11/23 04:51:37;;;;;;;60.85;25.70;;;7.70;99.90;;;;;;6185855;23;20550;-82
2022/11/23 04:54:03;;;;;;;59.10;25.55;;;7.80;99.90;;;;;;6183958;23;20339;-83
2022/11/23 04:56:29;;;;;;;58.40;25.77;;;7.70;99.90;;;;;;6159507;23;20088;-83
2022/11/23 04:58:54;;;;;;;56.47;25.58;;;7.70;99.90;;;;;;6186496;23;20063;-82
2022/11/23 05:01:20;;;;;;;62.28;27.42;;;7.80;99.90;;;;;;6185918;23;20017;-81
2022/11/23 05:03:46;;;;;;;54.00;24.17;;;7.80;99.90;;;;;;6184075;23;20044;-82
2022/11/23 05:06:11;;;;;;;56.40;25.42;;;7.80;99.90;;;;;;6160694;23;20434;-82
2022/11/23 05:08:37;;;;;;;54.50;25.17;;;7.80;99.90;;;;;;6185949;23;20320;-83
2022/11/23 05:11:03;;;;;;;54.67;25.20;;;7.80;99.90;;;;;;6187375;23;20017;-82
2022/11/23 05:13:28;;;;;;;55.72;25.63;;;7.80;99.90;;;;;;6185953;23;20009;-82
2022/11/23 05:15:54;;;;;;;57.70;26.02;;;7.80;99.90;;;;;;6187238;23;20013;-82
2022/11/23 05:18:20;;;;;;;54.72;24.83;;;7.80;99.90;;;;;;6185801;23;20386;-82
2022/11/23 05:20:45;;;;;;;55.22;23.90;;;7.80;99.90;;;;;;6185659;23;20104;-83
2022/11/23 05:23:11;;;;;;;51.65;24.65;;;7.90;99.90;;;;;;6185619;23;20017;-82
2022/11/23 05:25:37;;;;;;;53.90;21.95;;;7.90;99.90;;;;;;6185749;23;20020;-82
2022/11/23 05:28:03;;;;;;;57.40;25.30;;;7.90;99.90;;;;;;6187195;23;20013;-81
2022/11/23 05:30:29;;;;;;;47.80;24.23;;;7.90;99.90;;;;;;6187676;23;20017;-83
2022/11/23 05:33:02;;;;;;;50.17;23.88;;;7.90;99.90;;;;;;6185869;23;20018;-81
2022/11/23 05:35:28;;;;;;;54.10;23.42;;;7.90;99.90;;;;;;6185653;23;20087;-82
2022/11/23 05:37:54;;;;;;;49.60;24.10;;;7.90;99.90;;;;;;6187401;23;20040;-82
2022/11/23 05:40:20;;;;;;;50.22;22.98;;;7.90;99.90;;;;;;6185590;23;20435;-83
2022/11/23 05:42:46;;;;;;;50.72;21.85;;;7.90;99.90;;;;;;6185506;23;20028;-81
2022/11/23 05:45:11;;;;;;;50.67;21.92;;;7.90;99.90;;;;;;6185459;23;20021;-83
2022/11/23 05:47:37;;;;;;;48.67;21.83;;;7.90;99.90;;;;;;6185582;23;20062;-82
2022/11/23 05:50:03;;;;;;;42.13;21.13;;;7.90;99.90;;;;;;6187539;23;20330;-82
2022/11/23 05:52:29;;;;;;;44.35;21.27;;;7.90;99.90;;;;;;6187162;23;20005;-82
2022/11/23 05:54:55;;;;;;;43.58;20.40;;;7.90;99.90;;;;;;6187066;23;20092;-82
2022/11/23 05:57:21;;;;;;;39.75;19.95;;;7.90;99.90;;;;;;6185393;23;20064;-82
2022/11/23 05:59:47;;;;;;;45.45;20.58;;;7.90;99.90;;;;;;6187880;23;20350;-82
2022/11/23 06:02:12;;;;;;;34.30;18.45;;;7.90;99.90;;;;;;6185105;23;20017;-82
2022/11/23 06:04:48;;;;;;;40.88;20.08;;;7.90;99.90;;;;;;6186669;23;20013;-81
2022/11/23 06:07:14;;;;;;;42.25;19.00;;;7.90;99.90;;;;;;6184889;23;20048;-82
2022/11/23 06:09:39;;;;;;;40.20;17.70;;;7.90;99.90;;;;;;6185301;23;20016;-82
2022/11/23 06:12:05;;;;;;;35.55;18.17;;;7.90;99.90;;;;;;6185305;23;20133;-82
2022/11/23 06:14:31;;;;;;;38.08;18.55;;;7.90;99.90;;;;;;6185389;23;20017;-82
2022/11/23 06:16:56;;;;;;;38.70;17.13;;;7.90;99.90;;;;;;6186861;23;20009;-82
2022/11/23 06:19:22;;;;;;;35.65;17.40;;;7.90;99.90;;;;;;6185447;23;20375;-82
2022/11/23 06:21:48;;;;;;;36.35;17.00;;;7.80;99.90;;;;;;6185022;23;20040;-82
2022/11/23 06:24:13;;;;;;;32.35;16.45;;;7.80;99.90;;;;;;6160417;23;20136;-82
2022/11/23 06:26:39;;;;;;;35.03;15.02;;;7.80;99.90;;;;;;6184976;23;20024;-82
2022/11/23 06:29:04;;;;;;;33.35;15.60;;;7.80;99.90;;;;;;6184967;23;20020;-83
2022/11/23 06:31:30;;;;;;;31.30;16.67;;;7.80;99.90;;;;;;6185151;23;20013;-83
2022/11/23 06:33:56;;;;;;;30.35;14.15;;;7.80;99.90;;;;;;6185655;23;20028;-80
2022/11/23 06:36:21;;;;;;;29.33;13.98;;;7.70;99.90;;;;;;6187091;23;20017;-81
2022/11/23 06:38:47;;;;;;;31.95;14.68;;;7.70;99.90;;;;;;6184174;23;20021;-85
2022/11/23 06:41:13;;;;;;;33.53;13.38;;;7.70;99.90;;;;;;6159474;23;20024;-84
2022/11/23 06:43:39;;;;;;;27.92;12.80;;;7.60;99.90;;;;;;6187028;23;20099;-83
2022/11/23 06:46:06;;;;;;;32.58;14.25;;;7.60;99.90;;;;;;6160152;23;20088;-80
2022/11/23 06:48:34;;;;;;;27.85;12.25;;;7.50;99.90;;;;;;6185489;23;20088;-81
2022/11/23 06:51:00;;;;;;;24.98;11.82;;;7.60;99.90;;;;;;6185127;23;20041;-83
2022/11/23 06:53:27;;;;;;;26.45;11.35;;;7.50;99.90;;;;;;6186991;23;20024;-83
2022/11/23 06:55:58;;;;;;;24.73;11.05;;;7.50;99.90;;;;;;6185078;23;20067;-82
2022/11/23 06:58:24;;;;;;;23.45;10.48;;;7.40;99.90;;;;;;6160292;23;20052;-82
2022/11/23 07:00:50;;;;;;;22.38;10.43;;;7.40;99.90;;;;;;6184643;23;20428;-84
2022/11/23 07:03:23;;;;;;;20.88;9.85;;;7.50;99.90;;;;;;6184816;23;20025;-82
2022/11/23 07:05:49;;;;;;;25.65;10.05;;;7.40;99.90;;;;;;6184908;23;20013;-83
2022/11/23 07:08:15;;;;;;;23.00;10.07;;;7.40;99.90;;;;;;6184680;23;20443;-83
2022/11/23 07:10:40;;;;;;;22.20;9.77;;;7.40;99.90;;;;;;6184590;23;20084;-82
2022/11/23 07:13:08;;;;;;;22.58;10.23;;;7.50;99.90;;;;;;6160058;23;20087;-81
2022/11/23 07:15:34;;;;;;;24.38;10.18;;;7.50;99.90;;;;;;6187194;23;20015;-82
2022/11/23 07:18:01;;;;;;;20.23;9.02;;;7.50;99.90;;;;;;6187692;23;20103;-83
2022/11/23 07:20:27;;;;;;;22.25;9.07;;;7.50;99.90;;;;;;6209580;23;20017;-82
2022/11/23 07:23:03;;;;;;;22.65;9.07;;;7.60;99.90;;;;;;6184642;23;20339;-82
2022/11/23 07:25:30;;;;;;;20.63;8.25;;;7.60;99.90;;;;;;6184341;23;20017;-82
2022/11/23 07:27:57;;;;;;;21.10;8.88;;;7.70;99.90;;;;;;6185177;23;20019;-82
2022/11/23 07:30:24;;;;;;;19.80;8.68;;;7.70;99.90;;;;;;6184529;23;20321;-81
2022/11/23 07:32:51;;;;;;;24.95;9.68;;;7.70;99.90;;;;;;6186360;23;20009;-85
2022/11/23 07:35:17;;;;;;;24.20;9.27;;;7.70;99.90;;;;;;6184733;23;20497;-82
2022/11/23 07:37:43;;;;;;;21.33;8.57;;;7.70;99.90;;;;;;6184737;23;20017;-83
2022/11/23 07:40:09;;;;;;;20.60;9.63;;;7.80;99.90;;;;;;6159861;23;20020;-83
2022/11/23 07:42:35;;;;;;;20.60;8.90;;;7.80;99.90;;;;;;6184334;23;20025;-83
2022/11/23 07:45:02;;;;;;;20.88;8.30;;;7.80;99.90;;;;;;6186700;23;20084;-82
2022/11/23 07:47:27;;;;;;;18.42;8.48;;;7.80;99.90;;;;;;6184630;23;20076;-82
2022/11/23 07:49:53;;;;;;;18.10;8.20;;;7.80;99.90;;;;;;6159650;23;20052;-84
2022/11/23 07:52:19;;;;;;;24.20;9.82;;;7.90;99.90;;;;;;6186155;23;20055;-83
2022/11/23 07:54:44;;;;;;;24.05;8.82;;;7.90;99.90;;;;;;6186327;23;20024;-84
2022/11/23 07:57:10;;;;;;;22.88;8.13;;;7.90;99.90;;;;;;6209434;23;20013;-85
2022/11/23 07:59:36;;;;;;;22.25;7.85;;;7.90;99.90;;;;;;6186284;23;20028;-83
2022/11/23 08:02:01;;;;;;;18.13;7.70;;;8.00;99.90;;;;;;6186071;23;20060;-83
2022/11/23 08:04:28;;;;;;;19.10;7.70;;;8.00;99.90;;;;;;6186034;23;20020;-84
2022/11/23 08:06:54;;;;;;;20.30;7.15;;;8.00;99.90;;;;;;6184679;23;20304;-83
2022/11/23 08:09:19;;;;;;;20.58;7.20;;;8.00;99.90;;;;;;6184407;23;20048;-83
2022/11/23 08:11:45;;;;;;;19.38;7.57;;;8.10;99.90;;;;;;6185925;23;20009;-84
2022/11/23 08:14:11;;;;;;;17.88;6.40;;;8.10;99.90;;;;;;6184371;23;20013;-83
2022/11/23 08:16:37;;;;;;;20.25;6.90;;;8.10;99.90;;;;;;6184427;23;20386;-82
2022/11/23 08:19:02;;;;;;;20.83;7.13;;;8.20;99.90;;;;;;6184572;23;20419;-84
2022/11/23 08:21:28;;;;;;;15.05;6.22;;;8.20;99.90;;;;;;6186144;23;20454;-85
2022/11/23 08:23:54;;;;;;;19.45;6.90;;;8.20;99.90;;;;;;6159357;23;20092;-85
2022/11/23 08:26:20;;;;;;;17.27;6.80;;;8.20;99.90;;;;;;6184089;23;20088;-82
2022/11/23 08:28:46;;;;;;;13.45;6.32;;;8.20;99.90;;;;;;6184369;23;20437;-84
2022/11/23 08:31:13;;;;;;;19.85;6.88;;;8.20;99.90;;;;;;6184015;23;20017;-86
2022/11/23 08:33:39;;;;;;;19.90;6.65;;;8.20;99.90;;;;;;6209751;23;20338;-84
2022/11/23 08:36:07;;;;;;;16.90;6.47;;;8.20;99.90;;;;;;6209562;23;20096;-85
2022/11/23 08:38:33;;;;;;;19.42;7.22;;;8.30;99.90;;;;;;6210539;23;20396;-85
2022/11/23 08:41:01;;;;;;;18.05;7.25;;;8.20;99.90;;;;;;6210487;23;20048;-84
2022/11/23 08:43:27;;;;;;;16.48;6.65;;;8.20;99.90;;;;;;6186533;23;20042;-83
2022/11/23 08:45:57;;;;;;;17.58;6.63;;;8.20;99.90;;;;;;6185896;23;20351;-83
2022/11/23 08:48:23;;;;;;;14.13;6.70;;;8.20;99.90;;;;;;6161332;23;20024;-83
2022/11/23 08:50:49;;;;;;;21.73;7.55;;;8.20;99.90;;;;;;6187744;23;20016;-82
2022/11/23 08:53:15;;;;;;;14.27;5.90;;;8.30;99.90;;;;;;6187025;23;20009;-83
2022/11/23 08:55:40;;;;;;;16.98;6.10;;;8.30;99.90;;;;;;6187988;23;20076;-83
2022/11/23 08:58:07;;;;;;;30.80;7.53;;;8.30;99.90;;;;;;6185819;23;20469;-82
2022/11/23 09:00:34;;;;;;;19.15;6.63;;;8.30;99.90;;;;;;6187604;23;20368;-82
2022/11/23 09:03:00;;;;;;;20.63;5.70;;;8.30;99.90;;;;;;6185771;23;20343;-82
2022/11/23 09:05:27;;;;;;;16.83;5.97;;;8.40;99.90;;;;;;6210829;23;20455;-83
2022/11/23 09:08:00;;;;;;;17.38;5.38;;;8.40;99.90;;;;;;6187537;23;20335;-82
2022/11/23 09:10:26;;;;;;;19.75;5.80;;;8.40;99.90;;;;;;6187226;23;20020;-81
2022/11/23 09:12:52;;;;;;;11.68;4.15;;;8.40;99.90;;;;;;6188115;23;20330;-84
2022/11/23 09:15:18;;;;;;;26.25;5.40;;;8.40;99.90;;;;;;6187717;23;20043;-81
2022/11/23 09:17:44;;;;;;;13.77;4.50;;;8.40;99.90;;;;;;6185793;23;20038;-81
2022/11/23 09:20:10;;;;;;;16.83;5.55;;;8.40;99.90;;;;;;6185649;23;20017;-82
2022/11/23 09:22:36;;;;;;;17.83;4.60;;;8.50;99.90;;;;;;6185554;23;20079;-81
2022/11/23 09:25:02;;;;;;;16.52;4.60;;;8.50;99.90;;;;;;6160789;23;20092;-83
2022/11/23 09:27:28;;;;;;;14.48;4.88;;;8.50;99.90;;;;;;6187271;23;20067;-82
2022/11/23 09:29:54;;;;;;;15.02;4.50;;;8.50;99.90;;;;;;6210673;23;20442;-83
2022/11/23 09:32:19;;;;;;;15.10;4.50;;;8.40;99.90;;;;;;6160681;23;20092;-82
2022/11/23 09:34:45;;;;;;;17.85;4.95;;;8.50;99.90;;;;;;6160731;23;20355;-83
2022/11/23 09:37:12;;;;;;;15.82;4.75;;;8.50;99.90;;;;;;6187507;23;20331;-83
2022/11/23 09:39:38;;;;;;;16.92;4.90;;;8.50;99.90;;;;;;6187570;23;20037;-83
2022/11/23 09:42:28;;;;;;;18.13;4.55;;;8.60;99.90;;;;;;6186187;23;20465;-83
2022/11/23 09:45:15;;;;;;;16.10;5.03;;;8.60;99.90;;;;;;6186118;23;20024;-83
2022/11/23 09:48:11;;;;;;;24.58;5.20;;;8.60;99.90;;;;;;6185425;23;20023;-84
2022/11/23 09:50:55;;;;;;;;;;;8.60;99.90;;;;;;6185739;23;20061;-84
2022/11/23 09:53:28;;;;;;;23.55;5.88;;;8.60;99.90;;;;;;6186685;23;20332;-83
2022/11/23 09:55:56;;;;;;;18.92;5.00;;;8.60;99.90;;;;;;6187948;23;20419;-83
2022/11/23 09:58:25;;;;;;;21.50;5.47;;;8.60;99.90;;;;;;6185402;23;20017;-82
2022/11/23 10:01:01;;;;;;;15.32;5.35;;;8.60;99.90;;;;;;6185008;23;20431;-83
2022/11/23 10:03:29;;;;;;;20.73;5.65;;;8.60;99.90;;;;;;6185335;23;20072;-84
2022/11/23 10:06:24;;;;;;;24.13;6.47;;;8.60;99.90;;;;;;6185179;23;20017;-83
2022/11/23 10:09:00;;;;;;;23.92;4.65;;;8.60;99.90;;;;;;6182317;23;20031;-83
2022/11/23 10:11:41;;;;;;;17.23;5.68;;;8.70;99.90;;;;;;6185096;23;20017;-82
2022/11/23 10:14:22;;;;;;;19.05;5.25;;;8.70;99.90;;;;;;6185162;23;20016;-83
2022/11/23 10:17:26;;;;;;;23.13;5.72;;;8.70;99.90;;;;;;6160208;23;20063;-83
2022/11/23 10:20:10;;;;;;;24.63;4.75;;;8.70;99.90;;;;;;6186975;23;20036;-83
2022/11/23 10:22:59;;;;;;;19.50;5.43;;;8.70;99.90;;;;;;6185197;23;20025;-84
2022/11/23 10:25:31;;;;;;;19.23;4.65;;;8.70;99.90;;;;;;6186992;23;20107;-84
2022/11/23 10:28:05;;;;;;;20.13;5.97;;;8.70;99.90;;;;;;6160082;23;20012;-84
2022/11/23 10:30:31;;;;;;;17.70;5.07;;;8.80;99.90;;;;;;6187103;23;20064;-83
2022/11/23 10:33:09;;;;;;;14.90;4.35;;;8.80;99.90;;;;;;6160464;23;20009;-83
2022/11/23 10:35:37;;;;;;;16.33;4.32;;;8.90;99.90;;;;;;6184862;23;20458;-84
2022/11/23 10:38:16;;;;;;;16.65;4.35;;;9.00;99.90;;;;;;6186640;23;20087;-83
2022/11/23 10:41:03;;;;;;;12.95;3.65;;;9.00;99.90;;;;;;6186262;23;20457;-84
2022/11/23 10:43:42;;;;;;;15.57;4.10;;;9.10;99.90;;;;;;6186648;23;20032;-83
2022/11/23 10:46:26;;;;;;;17.73;3.60;;;9.10;99.90;;;;;;6187003;23;20421;-83
2022/11/23 10:48:53;;;;;;;21.75;4.43;;;9.10;99.90;;;;;;6185007;23;20009;-84
2022/11/23 10:51:23;;;;;;;28.88;5.13;;;9.20;99.90;;;;;;6186962;23;20384;-83
2022/11/23 10:53:55;;;;;;;17.00;3.55;;;9.40;99.90;;;;;;6186728;23;20052;-83
2022/11/23 10:56:22;;;;;;;18.63;3.70;;;9.60;99.90;;;;;;6186757;23;20092;-82
2022/11/23 10:58:47;;;;;;;16.73;3.45;;;9.80;99.90;;;;;;6184802;23;20016;-85
2022/11/23 11:01:17;;;;;;;17.13;3.47;;;10.10;99.90;;;;;;6184586;23;20021;-84
2022/11/23 11:03:43;;;;;;;20.48;4.85;;;10.30;99.90;;;;;;6185923;23;20044;-84
2022/11/23 11:06:09;;;;;;;18.67;3.58;;;10.60;99.90;;;;;;6184682;23;20427;-85
2022/11/23 11:09:16;;;;;;;12.82;2.83;;;10.90;99.90;;;;;;6186634;23;20375;-82
2022/11/23 11:11:45;;;;;;;;;;;11.10;99.90;;;;;;6186756;23;20016;-85
2022/11/23 11:14:22;;;;;;;15.55;2.80;;;11.20;99.90;;;;;;6186624;23;19912;-83
2022/11/23 11:16:53;;;;;;;14.88;2.67;;;11.20;99.90;;;;;;6160156;23;20017;-83
2022/11/23 11:19:39;;;;;;;17.33;2.83;;;11.10;99.90;;;;;;6184676;23;20040;-82
2022/11/23 11:22:25;;;;;;;;;;;11.00;99.90;;;;;;6184629;23;20020;-84
2022/11/23 11:24:51;;;;;;;17.85;3.08;;;11.00;99.90;;;;;;6186316;23;19966;-83
2022/11/23 11:27:22;;;;;;;14.75;3.17;;;11.10;99.90;;;;;;6186343;23;20017;-82
2022/11/23 11:29:52;;;;;;;17.27;3.00;;;11.10;99.90;;;;;;6186920;23;20017;-84
2022/11/23 11:32:49;;;;;;;14.88;2.97;;;11.10;99.90;;;;;;6186497;23;20013;-84
2022/11/23 11:35:24;;;;;;;16.80;3.15;;;11.20;99.90;;;;;;6186307;23;20088;-82
2022/11/23 11:37:54;;;;;;;12.80;2.65;;;11.30;99.90;;;;;;6192093;23;20009;-83
2022/11/23 11:40:35;;;;;;;16.60;2.70;;;11.40;99.90;;;;;;6191424;23;20336;-83
2022/11/23 11:43:03;;;;;;;14.35;2.33;;;11.50;99.90;;;;;;6207846;23;20025;-81
2022/11/23 11:45:39;;;;;;;19.55;4.32;;;11.50;99.90;;;;;;6211250;23;20008;-80
2022/11/23 11:48:17;;;;;;;19.42;3.53;;;11.60;99.90;;;;;;6187690;23;20017;-83
2022/11/23 11:50:54;;;;;;;14.75;3.05;;;11.70;99.90;;;;;;6187786;23;20015;-83
2022/11/23 11:53:29;;;;;;;9.70;2.65;;;11.80;99.90;;;;;;6185238;23;20382;-83
2022/11/23 11:56:10;;;;;;;15.40;2.70;;;11.80;99.90;;;;;;6185428;23;20016;-82
2022/11/23 11:58:36;;;;;;;12.25;2.40;;;11.80;99.90;;;;;;6186468;23;20013;-82
2022/11/23 12:01:27;;;;;;;14.68;2.50;;;11.80;99.90;;;;;;6184636;23;20375;-83
2022/11/23 12:04:07;;;;;;;13.80;2.53;;;11.80;99.90;;;;;;6185897;23;20423;-84
2022/11/23 12:06:41;;;;;;;11.80;2.63;;;11.80;99.90;;;;;;6184157;23;20063;-82
2022/11/23 12:09:23;;;;;;;11.75;2.22;;;11.80;99.90;;;;;;6185277;23;20024;-84
2022/11/23 12:11:49;;;;;;;12.43;2.33;;;11.90;99.90;;;;;;6159542;23;20013;-83
2022/11/23 12:14:15;;;;;;;13.60;2.42;;;11.90;99.90;;;;;;6184312;23;20020;-83
2022/11/23 12:16:58;;;;;;;10.55;2.10;;;11.80;99.90;;;;;;6184208;23;20063;-82
2022/11/23 12:19:38;;;;;;;11.88;2.20;;;11.70;99.90;;;;;;6184317;23;20044;-83
2022/11/23 12:22:26;;;;;;;11.60;2.03;;;11.70;99.90;;;;;;6184031;23;20461;-83
2022/11/23 12:25:10;;;;;;;13.75;2.60;;;11.70;99.90;;;;;;6159072;23;20466;-83
2022/11/23 12:27:47;;;;;;;9.85;2.35;;;11.80;99.90;;;;;;6184258;23;20021;-82
2022/11/23 12:30:20;;;;;;;12.32;2.00;;;11.80;99.90;;;;;;6186148;23;20084;-82
2022/11/23 12:33:16;;;;;;;8.70;1.90;;;11.80;99.90;;;;;;6185018;23;20072;-83
2022/11/23 12:36:11;;;;;;;10.13;2.03;;;11.70;99.90;;;;;;6184075;23;20009;-83
2022/11/23 12:39:02;;;;;;;14.27;3.38;;;11.70;99.90;;;;;;6185389;23;20025;-82
2022/11/23 12:41:59;;;;;;;11.05;1.80;;;11.80;99.90;;;;;;6185361;23;20017;-82
2022/11/23 12:44:47;;;;;;;13.27;2.15;;;11.90;99.90;;;;;;6185357;23;20023;-83
2022/11/23 12:47:30;;;;;;;12.63;2.40;;;12.00;99.90;;;;;;6185240;23;20088;-82
2022/11/23 12:50:12;;;;;;;11.98;1.98;;;12.10;99.90;;;;;;6184183;23;20013;-82
2022/11/23 12:53:01;;;;;;;11.20;2.60;;;12.10;99.90;;;;;;6183835;23;20493;-82
2022/11/23 12:55:42;;;;;;;10.23;2.28;;;12.10;99.90;;;;;;6186076;23;20012;-83
2022/11/23 12:58:15;;;;;;;9.82;2.15;;;12.10;99.90;;;;;;6183906;23;20117;-82
2022/11/23 13:01:09;;;;;;;6.68;2.00;;;12.10;99.90;;;;;;6183548;23;20017;-83
2022/11/23 13:03:52;;;;;;;13.77;1.67;;;12.10;99.90;;;;;;6186295;23;20041;-83
2022/11/23 13:06:42;;;;;;;9.35;1.70;;;12.00;99.90;;;;;;6183809;23;20021;-82
2022/11/23 13:09:46;;;;;;;8.90;1.95;;;11.80;99.90;;;;;;6184108;23;20009;-82
2022/11/23 13:12:31;;;;;;;8.40;1.90;;;11.80;99.90;;;;;;6186874;23;20020;-82
2022/11/23 13:15:25;;;;;;;11.15;1.73;;;11.60;99.90;;;;;;6184398;23;20017;-82
2022/11/23 13:18:17;;;;;;;12.75;1.83;;;11.40;99.90;;;;;;6160030;23;20079;-82
2022/11/23 13:21:07;;;;;;;11.73;1.83;;;11.20;99.90;;;;;;6186484;23;20337;-83
2022/11/23 13:23:37;;;;;;;11.40;2.40;;;11.00;99.90;;;;;;6184363;23;20092;-82
2022/11/23 13:26:30;;;;;;;9.55;1.70;;;11.00;99.90;;;;;;6184785;23;20023;-82
2022/11/23 13:28:57;;;;;;;12.38;1.77;;;11.40;99.90;;;;;;6186691;23;20171;-83
2022/11/23 13:31:30;;;;;;;13.05;2.00;;;11.90;99.90;;;;;;6187913;23;20080;-81
2022/11/23 13:34:22;;;;;;;7.93;1.88;;;12.10;99.90;;;;;;6185806;23;20427;-82
2022/11/23 13:36:59;;;;;;;13.27;1.83;;;12.20;99.90;;;;;;6187121;23;20075;-83
2022/11/23 13:39:44;;;;;;;8.07;1.45;;;12.10;99.90;;;;;;6185725;23;20071;-81
2022/11/23 13:42:10;;;;;;;8.63;1.70;;;12.00;99.90;;;;;;6187543;23;20009;-83
2022/11/23 13:44:36;;;;;;;10.05;1.98;;;11.90;99.90;;;;;;6187220;23;20044;-81
2022/11/23 13:47:13;;;;;;;8.48;1.55;;;11.80;99.90;;;;;;6185731;23;20059;-82
2022/11/23 13:49:51;;;;;;;12.15;1.77;;;11.70;99.90;;;;;;6185602;23;20013;-82
2022/11/23 13:52:20;;;;;;;11.68;2.00;;;11.70;99.90;;;;;;6187260;23;20326;-82
2022/11/23 13:55:00;;;;;;;15.63;2.38;;;11.70;99.90;;;;;;6187315;23;20016;-82
2022/11/23 13:57:26;;;;;;;10.15;2.00;;;11.80;99.90;;;;;;6186865;23;20013;-83
2022/11/23 13:59:51;;;;;;;7.22;1.80;;;11.90;99.90;;;;;;6187144;23;20472;-83
2022/11/23 14:02:27;;;;;;;9.00;1.70;;;12.00;99.90;;;;;;6185389;23;20031;-82
2022/11/23 14:05:29;;;;;;;11.98;1.90;;;12.00;99.90;;;;;;6210862;23;20431;-84
2022/11/23 14:07:57;;;;;;;6.70;1.73;;;11.80;99.90;;;;;;6187093;23;20016;-82
2022/11/23 14:10:24;;;;;;;11.27;1.85;;;11.60;99.90;;;;;;6187022;23;20090;-83
2022/11/23 14:12:59;;;;;;;11.55;1.67;;;11.50;99.90;;;;;;6185352;23;20460;-84
2022/11/23 14:15:29;;;;;;;11.48;1.50;;;11.40;99.90;;;;;;6187207;23;20013;-84
2022/11/23 14:18:26;;;;;;;9.80;1.70;;;11.30;99.90;;;;;;6187570;23;20009;-83
2022/11/23 14:21:17;;;;;;;10.20;1.45;;;11.20;99.90;;;;;;6185099;23;20371;-84
2022/11/23 14:24:02;;;;;;;8.43;1.85;;;11.00;99.90;;;;;;6187506;23;20020;-84
2022/11/23 14:26:36;;;;;;;11.77;1.92;;;10.80;99.90;;;;;;6187222;23;20039;-82
2022/11/23 14:29:26;;;;;;;9.02;1.73;;;10.60;99.90;;;;;;6188005;23;20019;-81
2022/11/23 14:32:16;;;;;;;8.98;1.67;;;10.40;99.90;;;;;;6185665;23;20013;-83
2022/11/23 14:34:53;;;;;;;10.55;1.40;;;10.30;99.90;;;;;;6187104;23;20087;-83
2022/11/23 14:37:40;;;;;;;8.88;1.95;;;10.20;99.90;;;;;;6210181;23;20071;-83
2022/11/23 14:40:32;;;;;;;13.15;2.25;;;10.10;99.90;;;;;;6187220;23;20094;-83
2022/11/23 14:43:12;;;;;;;5.55;1.33;;;10.00;99.90;;;;;;6187207;23;20013;-84
2022/11/23 14:45:38;;;;;;;7.95;1.45;;;9.90;99.90;;;;;;6186309;23;20084;-83
2022/11/23 14:48:30;;;;;;;10.23;2.00;;;9.80;99.90;;;;;;6185137;23;20020;-84
2022/11/23 14:51:04;;;;;;;7.22;1.60;;;9.70;99.90;;;;;;6185158;23;20056;-83
2022/11/23 14:53:42;;;;;;;10.93;1.60;;;9.70;99.90;;;;;;6187046;23;20309;-84
2022/11/23 14:56:29;;;;;;;7.15;1.45;;;9.70;99.90;;;;;;6185309;23;20400;-83
2022/11/23 14:59:20;;;;;;;7.80;2.30;;;9.70;99.90;;;;;;6187291;23;20012;-83
2022/11/23 15:02:00;;;;;;;14.35;1.73;;;9.70;99.90;;;;;;6189040;23;20021;-84
2022/11/23 15:04:33;;;;;;;8.50;1.58;;;9.70;99.90;;;;;;6187006;23;20023;-84
2022/11/23 15:07:16;;;;;;;6.97;1.55;;;9.70;99.90;;;;;;6187144;23;20016;-85
2022/11/23 15:10:25;;;;;;;8.57;1.92;;;9.60;99.90;;;;;;6186965;23;20013;-84
2022/11/23 15:12:51;;;;;;;10.02;1.65;;;9.60;99.90;;;;;;6187180;23;20009;-85
2022/11/23 15:15:25;;;;;;;10.02;1.73;;;9.60;99.90;;;;;;6185726;23;20051;-83
2022/11/23 15:17:59;;;;;;;5.60;1.77;;;9.60;99.90;;;;;;6187094;23;20088;-83
2022/11/23 15:20:33;;;;;;;7.20;1.52;;;9.50;99.90;;;;;;6186711;23;20009;-82
2022/11/23 15:23:03;;;;;;;7.95;1.70;;;9.50;99.90;;;;;;6186834;23;20020;-83
2022/11/23 15:25:29;;;;;;;9.70;2.03;;;9.30;99.90;;;;;;6185029;23;20017;-86
2022/11/23 15:27:55;;;;;;;10.07;1.90;;;9.30;99.90;;;;;;6187579;23;20009;-86
2022/11/23 15:30:25;;;;;;;13.65;1.60;;;9.30;99.90;;;;;;6187249;23;20044;-86
2022/11/23 15:33:04;;;;;;;11.82;1.98;;;9.20;99.90;;;;;;6187099;23;20071;-87
2022/11/23 15:35:32;;;;;;;7.78;1.95;;;9.20;99.90;;;;;;6186969;23;20020;-87
2022/11/23 15:37:59;;;;;;;11.00;3.13;;;9.10;99.90;;;;;;6187224;23;20052;-85
2022/11/23 15:40:29;;;;;;;8.25;2.00;;;9.10;99.90;;;;;;6160740;23;20028;-86
2022/11/23 15:42:55;;;;;;;15.98;2.33;;;9.10;99.90;;;;;;6185067;23;20048;-85
2022/11/23 15:45:44;;;;;;;12.07;2.53;;;9.10;99.90;;;;;;6160417;23;20020;-84
2022/11/23 15:48:25;;;;;;;8.30;2.50;;;9.10;99.90;;;;;;6185260;23;20013;-86
2022/11/23 15:50:52;;;;;;;9.68;2.33;;;9.00;99.90;;;;;;6186762;23;20009;-85
2022/11/23 15:53:23;;;;;;;10.95;2.20;;;9.00;99.90;;;;;;6187031;23;20080;-85
2022/11/23 15:55:49;;;;;;;9.07;2.00;;;9.00;99.90;;;;;;6210432;23;20387;-86
2022/11/23 15:58:19;;;;;;;11.65;2.45;;;9.10;99.90;;;;;;6185272;23;20447;-89
2022/11/23 16:00:52;;;;;;;10.18;2.05;;;9.10;99.90;;;;;;6185485;23;20067;-85
2022/11/23 16:03:51;;;;;;;10.50;1.95;;;9.00;99.90;;;;;;6185065;23;20366;-86
2022/11/23 16:06:27;;;;;;;11.15;2.17;;;9.10;99.90;;;;;;6178176;23;20056;-85
2022/11/23 16:08:52;;;;;;;11.85;2.30;;;9.00;99.90;;;;;;6185209;23;20013;-88
2022/11/23 16:11:18;;;;;;;8.02;1.60;;;9.00;99.90;;;;;;6160422;23;20064;-86
2022/11/23 16:13:44;;;;;;;10.02;1.77;;;9.00;99.90;;;;;;6184809;23;20016;-87
2022/11/23 16:16:21;;;;;;;6.97;1.90;;;9.00;99.90;;;;;;6186965;23;20339;-84
2022/11/23 16:18:51;;;;;;;7.07;1.98;;;9.00;99.90;;;;;;6184873;23;20099;-84
2022/11/23 16:21:19;;;;;;;7.82;1.50;;;9.00;99.90;;;;;;6160767;23;20095;-86
2022/11/23 16:23:54;;;;;;;13.13;2.00;;;9.00;99.90;;;;;;6185346;23;20017;-85
2022/11/23 16:26:28;;;;;;;10.75;2.05;;;9.00;99.90;;;;;;6187000;23;20020;-85
2022/11/23 16:28:56;;;;;;;8.70;1.73;;;8.90;99.90;;;;;;6185643;23;20023;-86
2022/11/23 16:31:28;;;;;;;9.20;2.45;;;8.90;99.90;;;;;;6184862;23;20028;-85
2022/11/23 16:33:55;;;;;;;12.55;2.65;;;8.90;99.90;;;;;;6185000;23;20020;-85
2022/11/23 16:36:20;;;;;;;12.77;2.45;;;8.80;99.90;;;;;;6209784;23;20028;-85
2022/11/23 16:38:46;;;;;;;11.23;2.15;;;8.80;99.90;;;;;;6185367;23;20021;-86
2022/11/23 16:41:12;;;;;;;6.55;1.95;;;8.80;99.90;;;;;;6159911;23;20049;-87
2022/11/23 16:43:38;;;;;;;9.40;2.33;;;8.70;99.90;;;;;;6187482;23;20020;-84
2022/11/23 16:46:04;;;;;;;8.13;1.92;;;8.70;99.90;;;;;;6187464;23;20051;-84
2022/11/23 16:48:41;;;;;;;6.88;2.20;;;8.60;99.90;;;;;;6185090;23;20347;-85
2022/11/23 16:51:09;;;;;;;11.55;2.95;;;8.60;99.90;;;;;;6160315;23;20408;-85
2022/11/23 16:53:36;;;;;;;10.48;2.50;;;8.60;99.90;;;;;;6186902;23;20013;-84
2022/11/23 16:56:02;;;;;;;12.75;3.50;;;8.60;99.90;;;;;;6185181;23;20017;-86
2022/11/23 16:58:34;;;;;;;11.85;2.97;;;8.60;99.90;;;;;;6160702;23;20508;-84
2022/11/23 17:01:01;;;;;;;12.20;2.95;;;8.60;99.90;;;;;;6210975;23;20013;-83
2022/11/23 17:03:27;;;;;;;8.93;2.47;;;8.50;99.90;;;;;;6187237;23;20079;-85
2022/11/23 17:05:55;;;;;;;9.45;2.63;;;8.50;99.90;;;;;;6188263;23;20439;-82
2022/11/23 17:08:20;;;;;;;11.98;2.85;;;8.50;99.90;;;;;;6161788;23;20435;-86